sensor_id;sensor_type;location;lat;lon;timestamp;temperature;humidity
3001;DHT22;1510;51.072;6.678;2023-01-01T00:01:07;15.30;89.50
3001;DHT22;1510;51.072;6.678;2023-01-01T00:03:36;15.10;90.10
3001;DHT22;1510;51.072;6.678;2023-01-01T00:06:05;15.20;88.80
3001;DHT22;1510;51.072;6.678;2023-01-01T00:08:32;15.20;89.90
3001;DHT22;1510;51.072;6.678;2023-01-01T00:11:00;15.20;89.40
3001;DHT22;1510;51.072;6.678;2023-01-01T00:13:27;15.00;90.30
3001;DHT22;1510;51.072;6.678;2023-01-01T00:15:54;15.00;90.10
3001;DHT22;1510;51.072;6.678;2023-01-01T00:18:21;14.80;90.40
3001;DHT22;1510;51.072;6.678;2023-01-01T00:20:49;14.90;90.10
3001;DHT22;1510;51.072;6.678;2023-01-01T00:23:16;14.90;90.00
3001;DHT22;1510;51.072;6.678;2023-01-01T00:25:42;14.90;90.00
3001;DHT22;1510;51.072;6.678;2023-01-01T00:28:09;14.90;89.10
3001;DHT22;1510;51.072;6.678;2023-01-01T00:30:39;14.80;89.10
3001;DHT22;1510;51.072;6.678;2023-01-01T00:33:06;14.70;88.60
3001;DHT22;1510;51.072;6.678;2023-01-01T00:35:32;14.60;89.40
3001;DHT22;1510;51.072;6.678;2023-01-01T00:38:01;14.40;89.40
3001;DHT22;1510;51.072;6.678;2023-01-01T00:40:27;14.50;88.80
3001;DHT22;1510;51.072;6.678;2023-01-01T00:42:54;14.50;87.10
3001;DHT22;1510;51.072;6.678;2023-01-01T00:45:21;14.40;88.30
3001;DHT22;1510;51.072;6.678;2023-01-01T00:47:48;14.40;87.40
3001;DHT22;1510;51.072;6.678;2023-01-01T00:50:15;14.30;88.60
3001;DHT22;1510;51.072;6.678;2023-01-01T00:52:42;14.30;88.60
3001;DHT22;1510;51.072;6.678;2023-01-01T00:55:10;14.20;89.20
3001;DHT22;1510;51.072;6.678;2023-01-01T00:57:37;14.10;88.10
3001;DHT22;1510;51.072;6.678;2023-01-01T01:00:05;14.20;86.70
3001;DHT22;1510;51.072;6.678;2023-01-01T01:02:33;14.40;86.50
3001;DHT22;1510;51.072;6.678;2023-01-01T01:05:00;14.30;87.60
3001;DHT22;1510;51.072;6.678;2023-01-01T01:07:32;14.30;86.70
3001;DHT22;1510;51.072;6.678;2023-01-01T01:09:59;14.30;87.40
3001;DHT22;1510;51.072;6.678;2023-01-01T01:12:27;14.30;84.50
3001;DHT22;1510;51.072;6.678;2023-01-01T01:14:54;14.40;85.30
3001;DHT22;1510;51.072;6.678;2023-01-01T01:17:21;14.40;81.20
3001;DHT22;1510;51.072;6.678;2023-01-01T01:19:48;14.60;82.10
3001;DHT22;1510;51.072;6.678;2023-01-01T01:22:15;14.50;81.20
3001;DHT22;1510;51.072;6.678;2023-01-01T01:24:41;14.60;83.20
3001;DHT22;1510;51.072;6.678;2023-01-01T01:27:08;14.40;83.70
3001;DHT22;1510;51.072;6.678;2023-01-01T01:29:36;14.50;81.10
3001;DHT22;1510;51.072;6.678;2023-01-01T01:32:03;14.60;81.20
3001;DHT22;1510;51.072;6.678;2023-01-01T01:34:30;14.50;81.80
3001;DHT22;1510;51.072;6.678;2023-01-01T01:36:57;14.40;83.60
3001;DHT22;1510;51.072;6.678;2023-01-01T01:39:24;14.30;83.40
3001;DHT22;1510;51.072;6.678;2023-01-01T01:41:51;14.30;84.50
3001;DHT22;1510;51.072;6.678;2023-01-01T01:44:54;14.20;84.20
3001;DHT22;1510;51.072;6.678;2023-01-01T01:47:26;14.10;85.30
3001;DHT22;1510;51.072;6.678;2023-01-01T01:49:58;14.10;86.90
3001;DHT22;1510;51.072;6.678;2023-01-01T01:52:27;14.10;83.50
3001;DHT22;1510;51.072;6.678;2023-01-01T01:54:54;14.20;80.80
3001;DHT22;1510;51.072;6.678;2023-01-01T01:57:23;14.30;82.30
3001;DHT22;1510;51.072;6.678;2023-01-01T01:59:54;14.30;82.60
3001;DHT22;1510;51.072;6.678;2023-01-01T02:02:27;14.40;80.70
3001;DHT22;1510;51.072;6.678;2023-01-01T02:04:57;14.40;81.00
3001;DHT22;1510;51.072;6.678;2023-01-01T02:07:25;14.40;81.00
3001;DHT22;1510;51.072;6.678;2023-01-01T02:09:52;14.40;81.00
3001;DHT22;1510;51.072;6.678;2023-01-01T02:12:19;14.40;81.00
3001;DHT22;1510;51.072;6.678;2023-01-01T02:14:46;14.40;81.00
3001;DHT22;1510;51.072;6.678;2023-01-01T02:17:19;14.30;80.90
3001;DHT22;1510;51.072;6.678;2023-01-01T02:19:59;14.30;82.40
3001;DHT22;1510;51.072;6.678;2023-01-01T02:25:10;14.40;82.70
3001;DHT22;1510;51.072;6.678;2023-01-01T02:27:46;14.30;80.90
3001;DHT22;1510;51.072;6.678;2023-01-01T02:30:17;14.40;80.70
3001;DHT22;1510;51.072;6.678;2023-01-01T02:32:46;14.40;81.00
3001;DHT22;1510;51.072;6.678;2023-01-01T02:35:18;14.30;83.10
3001;DHT22;1510;51.072;6.678;2023-01-01T02:38:06;14.30;81.40
3001;DHT22;1510;51.072;6.678;2023-01-01T02:40:37;14.30;82.10
3001;DHT22;1510;51.072;6.678;2023-01-01T02:43:06;14.40;81.00
3001;DHT22;1510;51.072;6.678;2023-01-01T02:45:34;14.30;82.20
3001;DHT22;1510;51.072;6.678;2023-01-01T02:48:05;14.30;81.50
3001;DHT22;1510;51.072;6.678;2023-01-01T02:50:33;14.30;80.90
3001;DHT22;1510;51.072;6.678;2023-01-01T02:53:07;14.40;81.00
3001;DHT22;1510;51.072;6.678;2023-01-01T02:55:47;14.30;80.90
3001;DHT22;1510;51.072;6.678;2023-01-01T02:58:22;14.20;82.20
3001;DHT22;1510;51.072;6.678;2023-01-01T03:01:11;14.30;83.20
3001;DHT22;1510;51.072;6.678;2023-01-01T03:03:51;14.10;84.40
3001;DHT22;1510;51.072;6.678;2023-01-01T03:06:26;14.00;83.80
3001;DHT22;1510;51.072;6.678;2023-01-01T03:09:02;14.10;82.90
3001;DHT22;1510;51.072;6.678;2023-01-01T03:11:43;14.10;83.90
3001;DHT22;1510;51.072;6.678;2023-01-01T03:14:17;14.10;84.90
3001;DHT22;1510;51.072;6.678;2023-01-01T03:16:49;14.20;84.30
3001;DHT22;1510;51.072;6.678;2023-01-01T03:19:19;14.20;82.50
3001;DHT22;1510;51.072;6.678;2023-01-01T03:21:49;14.20;83.20
3001;DHT22;1510;51.072;6.678;2023-01-01T03:24:20;14.30;84.30
3001;DHT22;1510;51.072;6.678;2023-01-01T03:26:51;14.10;84.90
3001;DHT22;1510;51.072;6.678;2023-01-01T03:29:21;14.20;83.50
3001;DHT22;1510;51.072;6.678;2023-01-01T03:31:53;14.20;82.80
3001;DHT22;1510;51.072;6.678;2023-01-01T03:34:25;14.30;83.30
3001;DHT22;1510;51.072;6.678;2023-01-01T03:36:57;14.20;83.00
3001;DHT22;1510;51.072;6.678;2023-01-01T03:39:26;14.20;84.30
3001;DHT22;1510;51.072;6.678;2023-01-01T03:42:00;14.30;84.90
3001;DHT22;1510;51.072;6.678;2023-01-01T03:44:32;14.10;87.00
3001;DHT22;1510;51.072;6.678;2023-01-01T03:47:01;14.20;82.80
3001;DHT22;1510;51.072;6.678;2023-01-01T03:49:29;14.30;84.80
3001;DHT22;1510;51.072;6.678;2023-01-01T03:52:01;14.20;84.10
3001;DHT22;1510;51.072;6.678;2023-01-01T03:54:37;14.30;87.00
3001;DHT22;1510;51.072;6.678;2023-01-01T03:57:14;14.20;85.00
3001;DHT22;1510;51.072;6.678;2023-01-01T03:59:50;14.30;86.90
3001;DHT22;1510;51.072;6.678;2023-01-01T04:02:21;14.30;85.80
3001;DHT22;1510;51.072;6.678;2023-01-01T04:04:51;14.40;86.90
3001;DHT22;1510;51.072;6.678;2023-01-01T04:07:19;14.50;84.60
3001;DHT22;1510;51.072;6.678;2023-01-01T04:09:49;14.40;85.50
3001;DHT22;1510;51.072;6.678;2023-01-01T04:12:17;14.30;85.80
3001;DHT22;1510;51.072;6.678;2023-01-01T04:14:44;14.40;84.50
3001;DHT22;1510;51.072;6.678;2023-01-01T04:17:11;14.60;84.80
3001;DHT22;1510;51.072;6.678;2023-01-01T04:19:40;14.60;85.70
3001;DHT22;1510;51.072;6.678;2023-01-01T04:22:07;14.60;84.80
3001;DHT22;1510;51.072;6.678;2023-01-01T04:24:34;14.70;85.40
3001;DHT22;1510;51.072;6.678;2023-01-01T04:27:00;14.70;85.60
3001;DHT22;1510;51.072;6.678;2023-01-01T04:29:27;14.60;86.10
3001;DHT22;1510;51.072;6.678;2023-01-01T04:31:54;14.70;87.30
3001;DHT22;1510;51.072;6.678;2023-01-01T04:34:21;14.60;86.00
3001;DHT22;1510;51.072;6.678;2023-01-01T04:36:49;14.70;86.10
3001;DHT22;1510;51.072;6.678;2023-01-01T04:39:16;14.60;87.20
3001;DHT22;1510;51.072;6.678;2023-01-01T04:41:42;14.70;86.70
3001;DHT22;1510;51.072;6.678;2023-01-01T04:44:09;14.50;87.40
3001;DHT22;1510;51.072;6.678;2023-01-01T04:46:36;14.40;87.80
3001;DHT22;1510;51.072;6.678;2023-01-01T04:49:21;14.40;88.60
3001;DHT22;1510;51.072;6.678;2023-01-01T04:51:51;14.20;88.70
3001;DHT22;1510;51.072;6.678;2023-01-01T04:54:17;14.30;90.00
3001;DHT22;1510;51.072;6.678;2023-01-01T04:56:44;14.20;88.50
3001;DHT22;1510;51.072;6.678;2023-01-01T04:59:11;14.30;89.70
3001;DHT22;1510;51.072;6.678;2023-01-01T05:01:37;14.20;88.80
3001;DHT22;1510;51.072;6.678;2023-01-01T05:04:04;14.20;89.70
3001;DHT22;1510;51.072;6.678;2023-01-01T05:06:31;14.00;90.50
3001;DHT22;1510;51.072;6.678;2023-01-01T05:08:59;14.10;89.90
3001;DHT22;1510;51.072;6.678;2023-01-01T05:11:28;14.10;90.20
3001;DHT22;1510;51.072;6.678;2023-01-01T05:13:57;14.10;89.60
3001;DHT22;1510;51.072;6.678;2023-01-01T05:16:26;14.00;90.00
3001;DHT22;1510;51.072;6.678;2023-01-01T05:18:54;14.10;89.40
3001;DHT22;1510;51.072;6.678;2023-01-01T05:21:22;14.10;89.60
3001;DHT22;1510;51.072;6.678;2023-01-01T05:23:53;14.00;90.40
3001;DHT22;1510;51.072;6.678;2023-01-01T05:26:23;14.10;90.20
3001;DHT22;1510;51.072;6.678;2023-01-01T05:28:51;14.00;90.10
3001;DHT22;1510;51.072;6.678;2023-01-01T05:31:19;14.00;90.50
3001;DHT22;1510;51.072;6.678;2023-01-01T05:33:47;14.10;90.20
3001;DHT22;1510;51.072;6.678;2023-01-01T05:36:15;14.20;90.10
3001;DHT22;1510;51.072;6.678;2023-01-01T05:38:42;14.30;90.50
3001;DHT22;1510;51.072;6.678;2023-01-01T05:41:12;14.20;90.00
3001;DHT22;1510;51.072;6.678;2023-01-01T05:43:41;14.20;90.00
3001;DHT22;1510;51.072;6.678;2023-01-01T05:46:11;14.30;90.80
3001;DHT22;1510;51.072;6.678;2023-01-01T05:48:38;14.30;90.60
3001;DHT22;1510;51.072;6.678;2023-01-01T05:51:08;14.30;90.00
3001;DHT22;1510;51.072;6.678;2023-01-01T05:53:35;14.30;89.90
3001;DHT22;1510;51.072;6.678;2023-01-01T05:56:03;14.40;89.30
3001;DHT22;1510;51.072;6.678;2023-01-01T05:58:31;14.50;90.20
3001;DHT22;1510;51.072;6.678;2023-01-01T06:01:06;14.40;90.10
3001;DHT22;1510;51.072;6.678;2023-01-01T06:03:33;14.50;90.30
3001;DHT22;1510;51.072;6.678;2023-01-01T06:06:03;14.60;90.00
3001;DHT22;1510;51.072;6.678;2023-01-01T06:08:30;14.60;90.70
3001;DHT22;1510;51.072;6.678;2023-01-01T06:10:58;14.40;91.20
3001;DHT22;1510;51.072;6.678;2023-01-01T06:13:25;14.50;90.60
3001;DHT22;1510;51.072;6.678;2023-01-01T06:15:53;14.50;91.20
3001;DHT22;1510;51.072;6.678;2023-01-01T06:18:21;14.50;90.80
3001;DHT22;1510;51.072;6.678;2023-01-01T06:20:48;14.50;91.40
3001;DHT22;1510;51.072;6.678;2023-01-01T06:23:15;14.50;91.50
3001;DHT22;1510;51.072;6.678;2023-01-01T06:25:42;14.50;91.60
3001;DHT22;1510;51.072;6.678;2023-01-01T06:28:09;14.40;92.00
3001;DHT22;1510;51.072;6.678;2023-01-01T06:30:36;14.40;91.50
3001;DHT22;1510;51.072;6.678;2023-01-01T06:33:04;14.50;91.50
3001;DHT22;1510;51.072;6.678;2023-01-01T06:35:32;14.40;91.60
3001;DHT22;1510;51.072;6.678;2023-01-01T06:37:59;14.40;91.40
3001;DHT22;1510;51.072;6.678;2023-01-01T06:40:25;14.40;91.60
3001;DHT22;1510;51.072;6.678;2023-01-01T06:42:52;14.40;92.40
3001;DHT22;1510;51.072;6.678;2023-01-01T06:45:19;14.30;92.40
3001;DHT22;1510;51.072;6.678;2023-01-01T06:47:46;14.30;92.60
3001;DHT22;1510;51.072;6.678;2023-01-01T06:50:12;14.30;91.70
3001;DHT22;1510;51.072;6.678;2023-01-01T06:52:40;14.50;91.50
3001;DHT22;1510;51.072;6.678;2023-01-01T06:55:08;14.40;91.80
3001;DHT22;1510;51.072;6.678;2023-01-01T06:57:35;14.40;91.60
3001;DHT22;1510;51.072;6.678;2023-01-01T07:00:01;14.50;91.70
3001;DHT22;1510;51.072;6.678;2023-01-01T07:02:28;14.40;91.90
3001;DHT22;1510;51.072;6.678;2023-01-01T07:04:55;14.50;91.80
3001;DHT22;1510;51.072;6.678;2023-01-01T07:07:22;14.60;91.70
3001;DHT22;1510;51.072;6.678;2023-01-01T07:09:50;14.50;92.00
3001;DHT22;1510;51.072;6.678;2023-01-01T07:12:16;14.50;92.30
3001;DHT22;1510;51.072;6.678;2023-01-01T07:14:43;14.40;92.80
3001;DHT22;1510;51.072;6.678;2023-01-01T07:17:10;14.40;92.30
3001;DHT22;1510;51.072;6.678;2023-01-01T07:19:36;14.50;92.40
3001;DHT22;1510;51.072;6.678;2023-01-01T07:22:03;14.40;92.80
3001;DHT22;1510;51.072;6.678;2023-01-01T07:24:30;14.30;92.70
3001;DHT22;1510;51.072;6.678;2023-01-01T07:26:58;14.40;92.80
3001;DHT22;1510;51.072;6.678;2023-01-01T07:29:25;14.40;93.00
3001;DHT22;1510;51.072;6.678;2023-01-01T07:31:51;14.30;93.00
3001;DHT22;1510;51.072;6.678;2023-01-01T07:34:18;14.30;93.30
3001;DHT22;1510;51.072;6.678;2023-01-01T07:36:47;14.20;94.30
3001;DHT22;1510;51.072;6.678;2023-01-01T07:39:13;14.10;95.10
3001;DHT22;1510;51.072;6.678;2023-01-01T07:41:40;13.90;95.30
3001;DHT22;1510;51.072;6.678;2023-01-01T07:44:08;13.90;95.80
3001;DHT22;1510;51.072;6.678;2023-01-01T07:46:35;13.80;96.80
3001;DHT22;1510;51.072;6.678;2023-01-01T07:49:02;13.70;98.60
3001;DHT22;1510;51.072;6.678;2023-01-01T07:51:29;13.60;98.30
3001;DHT22;1510;51.072;6.678;2023-01-01T07:53:56;13.50;97.40
3001;DHT22;1510;51.072;6.678;2023-01-01T07:56:22;13.50;97.80
3001;DHT22;1510;51.072;6.678;2023-01-01T07:58:49;13.60;98.00
3001;DHT22;1510;51.072;6.678;2023-01-01T08:01:17;13.50;98.60
3001;DHT22;1510;51.072;6.678;2023-01-01T08:03:49;13.50;98.10
3001;DHT22;1510;51.072;6.678;2023-01-01T08:06:16;13.70;97.50
3001;DHT22;1510;51.072;6.678;2023-01-01T08:08:43;13.80;97.20
3001;DHT22;1510;51.072;6.678;2023-01-01T08:11:09;13.90;96.90
3001;DHT22;1510;51.072;6.678;2023-01-01T08:13:36;13.90;97.00
3001;DHT22;1510;51.072;6.678;2023-01-01T08:16:04;14.00;96.70
3001;DHT22;1510;51.072;6.678;2023-01-01T08:18:32;14.00;96.90
3001;DHT22;1510;51.072;6.678;2023-01-01T08:20:58;14.10;96.50
3001;DHT22;1510;51.072;6.678;2023-01-01T08:23:25;14.10;96.00
3001;DHT22;1510;51.072;6.678;2023-01-01T08:25:53;14.10;96.60
3001;DHT22;1510;51.072;6.678;2023-01-01T08:28:19;14.40;96.40
3001;DHT22;1510;51.072;6.678;2023-01-01T08:30:46;14.10;96.60
3001;DHT22;1510;51.072;6.678;2023-01-01T08:33:13;14.00;96.50
3001;DHT22;1510;51.072;6.678;2023-01-01T08:35:41;14.00;96.90
3001;DHT22;1510;51.072;6.678;2023-01-01T08:38:10;14.00;96.90
3001;DHT22;1510;51.072;6.678;2023-01-01T08:40:37;13.90;96.90
3001;DHT22;1510;51.072;6.678;2023-01-01T08:43:04;14.00;96.70
3001;DHT22;1510;51.072;6.678;2023-01-01T08:45:31;14.10;96.90
3001;DHT22;1510;51.072;6.678;2023-01-01T08:47:57;14.10;97.50
3001;DHT22;1510;51.072;6.678;2023-01-01T08:50:25;14.00;97.30
3001;DHT22;1510;51.072;6.678;2023-01-01T08:52:53;14.00;97.40
3001;DHT22;1510;51.072;6.678;2023-01-01T08:55:19;14.00;97.60
3001;DHT22;1510;51.072;6.678;2023-01-01T08:57:46;14.00;97.50
3001;DHT22;1510;51.072;6.678;2023-01-01T09:00:13;14.00;97.70
3001;DHT22;1510;51.072;6.678;2023-01-01T09:02:40;14.10;98.20
3001;DHT22;1510;51.072;6.678;2023-01-01T09:05:08;14.00;98.00
3001;DHT22;1510;51.072;6.678;2023-01-01T09:07:35;14.00;98.10
3001;DHT22;1510;51.072;6.678;2023-01-01T09:10:04;14.00;98.20
3001;DHT22;1510;51.072;6.678;2023-01-01T09:12:31;14.10;98.00
3001;DHT22;1510;51.072;6.678;2023-01-01T09:14:58;14.10;98.10
3001;DHT22;1510;51.072;6.678;2023-01-01T09:17:24;14.20;97.90
3001;DHT22;1510;51.072;6.678;2023-01-01T09:19:51;14.20;98.10
3001;DHT22;1510;51.072;6.678;2023-01-01T09:22:36;14.20;98.20
3001;DHT22;1510;51.072;6.678;2023-01-01T09:28:52;14.10;98.40
3001;DHT22;1510;51.072;6.678;2023-01-01T09:31:19;14.10;98.20
3001;DHT22;1510;51.072;6.678;2023-01-01T09:33:49;14.20;98.00
3001;DHT22;1510;51.072;6.678;2023-01-01T09:36:26;14.20;98.30
3001;DHT22;1510;51.072;6.678;2023-01-01T09:47:57;14.20;97.90
3001;DHT22;1510;51.072;6.678;2023-01-01T09:50:30;14.40;97.60
3001;DHT22;1510;51.072;6.678;2023-01-01T09:53:00;14.40;97.40
3001;DHT22;1510;51.072;6.678;2023-01-01T09:55:36;14.60;97.10
3001;DHT22;1510;51.072;6.678;2023-01-01T09:58:03;14.60;97.00
3001;DHT22;1510;51.072;6.678;2023-01-01T10:00:32;14.60;97.70
3001;DHT22;1510;51.072;6.678;2023-01-01T10:03:15;14.70;97.30
3001;DHT22;1510;51.072;6.678;2023-01-01T10:05:51;14.50;97.40
3001;DHT22;1510;51.072;6.678;2023-01-01T10:08:31;14.50;97.10
3001;DHT22;1510;51.072;6.678;2023-01-01T10:11:17;14.60;97.70
3001;DHT22;1510;51.072;6.678;2023-01-01T10:13:47;14.50;97.30
3001;DHT22;1510;51.072;6.678;2023-01-01T10:17:05;14.50;97.40
3001;DHT22;1510;51.072;6.678;2023-01-01T10:19:52;14.60;97.10
3001;DHT22;1510;51.072;6.678;2023-01-01T10:22:38;14.70;98.30
3001;DHT22;1510;51.072;6.678;2023-01-01T10:25:17;14.60;97.80
3001;DHT22;1510;51.072;6.678;2023-01-01T10:27:47;14.60;97.00
3001;DHT22;1510;51.072;6.678;2023-01-01T10:30:16;14.60;97.40
3001;DHT22;1510;51.072;6.678;2023-01-01T10:32:46;14.40;97.20
3001;DHT22;1510;51.072;6.678;2023-01-01T10:35:16;14.50;97.60
3001;DHT22;1510;51.072;6.678;2023-01-01T10:37:44;14.50;97.60
3001;DHT22;1510;51.072;6.678;2023-01-01T10:40:16;14.40;97.60
3001;DHT22;1510;51.072;6.678;2023-01-01T10:42:47;14.40;98.00
3001;DHT22;1510;51.072;6.678;2023-01-01T10:45:15;14.40;97.40
3001;DHT22;1510;51.072;6.678;2023-01-01T10:48:10;14.40;97.90
3001;DHT22;1510;51.072;6.678;2023-01-01T10:50:55;14.40;98.00
3001;DHT22;1510;51.072;6.678;2023-01-01T10:53:50;14.40;98.30
3001;DHT22;1510;51.072;6.678;2023-01-01T10:58:05;14.40;98.50
3001;DHT22;1510;51.072;6.678;2023-01-01T11:00:20;14.40;98.20
3001;DHT22;1510;51.072;6.678;2023-01-01T11:03:02;14.40;98.30
3001;DHT22;1510;51.072;6.678;2023-01-01T11:05:31;14.50;98.60
3001;DHT22;1510;51.072;6.678;2023-01-01T11:07:58;14.40;98.30
3001;DHT22;1510;51.072;6.678;2023-01-01T11:10:24;14.30;98.30
3001;DHT22;1510;51.072;6.678;2023-01-01T11:12:53;14.40;98.40
3001;DHT22;1510;51.072;6.678;2023-01-01T11:15:25;14.40;98.30
3001;DHT22;1510;51.072;6.678;2023-01-01T11:18:03;14.40;97.70
3001;DHT22;1510;51.072;6.678;2023-01-01T11:20:30;14.50;97.30
3001;DHT22;1510;51.072;6.678;2023-01-01T11:23:26;14.50;97.10
3001;DHT22;1510;51.072;6.678;2023-01-01T11:26:20;14.50;97.00
3001;DHT22;1510;51.072;6.678;2023-01-01T11:28:59;14.60;96.90
3001;DHT22;1510;51.072;6.678;2023-01-01T11:31:32;14.50;97.40
3001;DHT22;1510;51.072;6.678;2023-01-01T11:34:00;14.60;97.00
3001;DHT22;1510;51.072;6.678;2023-01-01T11:36:29;14.60;97.00
3001;DHT22;1510;51.072;6.678;2023-01-01T11:39:16;14.80;97.00
3001;DHT22;1510;51.072;6.678;2023-01-01T11:41:47;14.80;96.90
3001;DHT22;1510;51.072;6.678;2023-01-01T11:44:33;14.90;96.40
3001;DHT22;1510;51.072;6.678;2023-01-01T11:47:22;14.80;96.30
3001;DHT22;1510;51.072;6.678;2023-01-01T11:49:54;14.90;96.70
3001;DHT22;1510;51.072;6.678;2023-01-01T11:52:37;14.80;96.10
3001;DHT22;1510;51.072;6.678;2023-01-01T11:55:15;15.00;96.40
3001;DHT22;1510;51.072;6.678;2023-01-01T11:57:50;15.00;95.50
3001;DHT22;1510;51.072;6.678;2023-01-01T12:00:18;15.10;96.00
3001;DHT22;1510;51.072;6.678;2023-01-01T12:02:51;15.00;96.10
3001;DHT22;1510;51.072;6.678;2023-01-01T12:05:22;15.00;95.50
3001;DHT22;1510;51.072;6.678;2023-01-01T12:07:50;14.90;96.20
3001;DHT22;1510;51.072;6.678;2023-01-01T12:10:21;14.70;95.80
3001;DHT22;1510;51.072;6.678;2023-01-01T12:12:52;14.80;95.60
3001;DHT22;1510;51.072;6.678;2023-01-01T12:15:25;14.80;95.30
3001;DHT22;1510;51.072;6.678;2023-01-01T12:18:01;14.90;95.30
3001;DHT22;1510;51.072;6.678;2023-01-01T12:20:31;14.80;95.70
3001;DHT22;1510;51.072;6.678;2023-01-01T12:23:00;14.70;95.80
3001;DHT22;1510;51.072;6.678;2023-01-01T12:25:35;14.70;95.20
3001;DHT22;1510;51.072;6.678;2023-01-01T12:31:29;14.60;95.50
3001;DHT22;1510;51.072;6.678;2023-01-01T12:34:10;14.60;95.60
3001;DHT22;1510;51.072;6.678;2023-01-01T12:36:47;14.60;95.80
3001;DHT22;1510;51.072;6.678;2023-01-01T12:39:43;14.60;94.80
3001;DHT22;1510;51.072;6.678;2023-01-01T12:42:17;14.60;95.30
3001;DHT22;1510;51.072;6.678;2023-01-01T12:44:53;14.50;95.00
3001;DHT22;1510;51.072;6.678;2023-01-01T12:47:57;14.50;94.70
3001;DHT22;1510;51.072;6.678;2023-01-01T12:57:08;14.50;95.20
3001;DHT22;1510;51.072;6.678;2023-01-01T13:10:23;14.30;95.50
3001;DHT22;1510;51.072;6.678;2023-01-01T13:13:12;14.40;96.20
3001;DHT22;1510;51.072;6.678;2023-01-01T13:15:52;14.40;96.20
3001;DHT22;1510;51.072;6.678;2023-01-01T13:18:22;14.30;96.10
3001;DHT22;1510;51.072;6.678;2023-01-01T13:20:55;14.20;96.70
3001;DHT22;1510;51.072;6.678;2023-01-01T13:23:43;14.20;95.90
3001;DHT22;1510;51.072;6.678;2023-01-01T13:26:40;14.10;96.00
3001;DHT22;1510;51.072;6.678;2023-01-01T13:29:32;14.10;96.40
3001;DHT22;1510;51.072;6.678;2023-01-01T13:32:02;14.10;96.00
3001;DHT22;1510;51.072;6.678;2023-01-01T13:38:02;14.10;95.60
3001;DHT22;1510;51.072;6.678;2023-01-01T13:46:18;14.10;95.90
3001;DHT22;1510;51.072;6.678;2023-01-01T13:49:04;14.10;96.00
3001;DHT22;1510;51.072;6.678;2023-01-01T13:51:52;14.00;96.20
3001;DHT22;1510;51.072;6.678;2023-01-01T13:54:42;14.00;96.00
3001;DHT22;1510;51.072;6.678;2023-01-01T13:57:22;14.00;96.00
3001;DHT22;1510;51.072;6.678;2023-01-01T14:00:03;14.10;95.70
3001;DHT22;1510;51.072;6.678;2023-01-01T14:02:56;14.00;95.70
3001;DHT22;1510;51.072;6.678;2023-01-01T14:05:28;14.00;96.90
3001;DHT22;1510;51.072;6.678;2023-01-01T14:08:28;13.80;97.10
3001;DHT22;1510;51.072;6.678;2023-01-01T14:15:18;13.80;96.80
3001;DHT22;1510;51.072;6.678;2023-01-01T14:24:46;13.70;96.90
3001;DHT22;1510;51.072;6.678;2023-01-01T14:27:18;13.60;97.50
3001;DHT22;1510;51.072;6.678;2023-01-01T14:29:47;13.60;97.70
3001;DHT22;1510;51.072;6.678;2023-01-01T14:32:19;13.60;97.70
3001;DHT22;1510;51.072;6.678;2023-01-01T14:34:48;13.50;97.90
3001;DHT22;1510;51.072;6.678;2023-01-01T14:37:24;13.40;98.00
3001;DHT22;1510;51.072;6.678;2023-01-01T14:40:05;13.40;98.00
3001;DHT22;1510;51.072;6.678;2023-01-01T14:42:34;13.40;98.30
3001;DHT22;1510;51.072;6.678;2023-01-01T14:45:02;13.30;98.00
3001;DHT22;1510;51.072;6.678;2023-01-01T14:57:31;13.30;99.00
3001;DHT22;1510;51.072;6.678;2023-01-01T15:00:21;13.10;99.80
3001;DHT22;1510;51.072;6.678;2023-01-01T15:02:48;13.10;98.90
3001;DHT22;1510;51.072;6.678;2023-01-01T15:05:26;13.10;99.40
3001;DHT22;1510;51.072;6.678;2023-01-01T15:07:55;13.10;99.90
3001;DHT22;1510;51.072;6.678;2023-01-01T15:10:23;13.00;99.90
3001;DHT22;1510;51.072;6.678;2023-01-01T15:13:04;13.00;99.90
3001;DHT22;1510;51.072;6.678;2023-01-01T15:15:36;12.80;99.90
3001;DHT22;1510;51.072;6.678;2023-01-01T15:18:38;12.80;99.90
3001;DHT22;1510;51.072;6.678;2023-01-01T15:24:43;12.60;99.90
3001;DHT22;1510;51.072;6.678;2023-01-01T15:27:37;12.40;99.90
3001;DHT22;1510;51.072;6.678;2023-01-01T15:37:12;12.30;99.90
3001;DHT22;1510;51.072;6.678;2023-01-01T15:39:47;12.20;99.90
3001;DHT22;1510;51.072;6.678;2023-01-01T15:42:35;12.00;99.90
3001;DHT22;1510;51.072;6.678;2023-01-01T15:45:19;12.00;99.90
3001;DHT22;1510;51.072;6.678;2023-01-01T15:47:47;11.90;99.90
3001;DHT22;1510;51.072;6.678;2023-01-01T15:50:21;11.80;99.90
3001;DHT22;1510;51.072;6.678;2023-01-01T15:52:51;11.90;99.90
3001;DHT22;1510;51.072;6.678;2023-01-01T15:55:18;12.00;99.90
3001;DHT22;1510;51.072;6.678;2023-01-01T15:57:46;11.90;99.90
3001;DHT22;1510;51.072;6.678;2023-01-01T16:00:18;11.90;99.90
3001;DHT22;1510;51.072;6.678;2023-01-01T16:02:46;11.80;99.90
3001;DHT22;1510;51.072;6.678;2023-01-01T16:05:13;11.80;99.90
3001;DHT22;1510;51.072;6.678;2023-01-01T16:07:41;12.00;99.90
3001;DHT22;1510;51.072;6.678;2023-01-01T16:10:13;11.90;99.90
3001;DHT22;1510;51.072;6.678;2023-01-01T16:12:40;11.80;99.90
3001;DHT22;1510;51.072;6.678;2023-01-01T16:15:13;11.80;99.90
3001;DHT22;1510;51.072;6.678;2023-01-01T16:17:40;11.60;99.90
3001;DHT22;1510;51.072;6.678;2023-01-01T16:20:12;11.60;99.90
3001;DHT22;1510;51.072;6.678;2023-01-01T16:22:39;11.60;99.90
3001;DHT22;1510;51.072;6.678;2023-01-01T16:25:31;11.60;99.90
3001;DHT22;1510;51.072;6.678;2023-01-01T16:27:58;11.50;99.90
3001;DHT22;1510;51.072;6.678;2023-01-01T16:30:25;11.60;99.90
3001;DHT22;1510;51.072;6.678;2023-01-01T16:32:52;11.50;99.90
3001;DHT22;1510;51.072;6.678;2023-01-01T16:35:18;11.40;99.90
3001;DHT22;1510;51.072;6.678;2023-01-01T16:37:45;11.40;99.90
3001;DHT22;1510;51.072;6.678;2023-01-01T16:40:12;11.40;99.90
3001;DHT22;1510;51.072;6.678;2023-01-01T16:42:41;11.40;99.90
3001;DHT22;1510;51.072;6.678;2023-01-01T16:45:13;11.20;99.90
3001;DHT22;1510;51.072;6.678;2023-01-01T16:47:44;11.30;99.90
3001;DHT22;1510;51.072;6.678;2023-01-01T16:50:19;11.20;99.90
3001;DHT22;1510;51.072;6.678;2023-01-01T16:52:59;11.20;99.90
3001;DHT22;1510;51.072;6.678;2023-01-01T16:55:27;11.20;99.90
3001;DHT22;1510;51.072;6.678;2023-01-01T16:57:55;11.10;99.90
3001;DHT22;1510;51.072;6.678;2023-01-01T17:00:21;11.10;99.90
3001;DHT22;1510;51.072;6.678;2023-01-01T17:02:48;11.10;99.90
3001;DHT22;1510;51.072;6.678;2023-01-01T17:05:15;11.10;99.90
3001;DHT22;1510;51.072;6.678;2023-01-01T17:07:42;11.00;99.90
3001;DHT22;1510;51.072;6.678;2023-01-01T17:10:28;11.10;99.90
3001;DHT22;1510;51.072;6.678;2023-01-01T17:13:19;11.10;99.90
3001;DHT22;1510;51.072;6.678;2023-01-01T17:15:54;11.00;99.90
3001;DHT22;1510;51.072;6.678;2023-01-01T17:18:20;11.00;99.90
3001;DHT22;1510;51.072;6.678;2023-01-01T17:21:54;11.00;99.90
3001;DHT22;1510;51.072;6.678;2023-01-01T17:23:55;10.90;99.90
3001;DHT22;1510;51.072;6.678;2023-01-01T17:26:23;11.00;99.90
3001;DHT22;1510;51.072;6.678;2023-01-01T17:28:51;10.90;99.90
3001;DHT22;1510;51.072;6.678;2023-01-01T17:31:19;10.90;99.90
3001;DHT22;1510;51.072;6.678;2023-01-01T17:33:47;10.90;99.90
3001;DHT22;1510;51.072;6.678;2023-01-01T17:36:52;10.90;99.90
3001;DHT22;1510;51.072;6.678;2023-01-01T17:39:23;10.80;99.90
3001;DHT22;1510;51.072;6.678;2023-01-01T17:42:20;10.80;99.90
3001;DHT22;1510;51.072;6.678;2023-01-01T17:52:11;10.80;99.90
3001;DHT22;1510;51.072;6.678;2023-01-01T17:55:42;10.80;99.90
3001;DHT22;1510;51.072;6.678;2023-01-01T17:58:23;10.70;99.90